Terminal Aerodrome Forecast
Issued by NWS Memphis, TN

Home | Current Version | Previous Version | Text Only | Print | Product List | Glossary On
Versions: 1 2 3 4 5 6 7 8 9 10 11 12 13 14
000
FTUS44 KMEG 292339
TAFMKL
TAF
KMKL 292339Z 3000/3024 11008KT P6SM VCSH BKN100
     FM300400 12010KT P6SM VCSH SCT060 BKN100
      TEMPO 3012/3014 3SM TSRA BR BKN015CB
     FM301400 16012G20KT 5SM -TSRA BKN025CB OVC040
     FM301800 19015G25KT P6SM SCT050 BKN150
     FM302100 20012G20KT P6SM VCTS SCT050CB BKN250=

USA.gov is the U.S. government's official web portal to all federal, state and local government web resources and services.